Time;durP1;ratioP1;P1;durP2;ratioP2;P2;SDS_P1;SDS_P2;PMS_P1;PMS_P2;Temp;Humidity;BMP_temperature;BMP_pressure;BME280_temperature;BME280_humidity;BME280_pressure;Samples;Min_cycle;Max_cycle;Signal;HPM_P1;HPM_P2
2021/12/06 00:01:41;;;;;;;33.93;19.63;;;;;;;;;;5010140;28;20239;-71
2021/12/06 00:04:12;;;;;;;30.83;18.77;;;;;;;;;;5010380;28;21085;-71
2021/12/06 00:06:44;;;;;;;32.30;19.33;;;;;;;;;;5010710;28;20225;-72
2021/12/06 00:09:14;;;;;;;27.80;18.00;;;;;;;;;;4998913;28;20235;-72
2021/12/06 00:11:40;;;;;;;32.53;19.67;;;;;;;;;;5012397;28;20726;-71
2021/12/06 00:14:08;;;;;;;32.73;19.13;;;;;;;;;;4960399;28;20231;-71
2021/12/06 00:16:34;;;;;;;30.63;18.37;;;;;;;;;;5000408;28;20224;-71
2021/12/06 00:19:00;;;;;;;31.63;18.70;;;;;;;;;;4978730;28;20665;-71
2021/12/06 00:21:25;;;;;;;30.37;19.43;;;;;;;;;;4987976;28;20228;-70
2021/12/06 00:23:56;;;;;;;32.00;19.77;;;;;;;;;;4983354;28;20224;-72
2021/12/06 00:26:28;;;;;;;35.60;19.00;;;;;;;;;;5019792;28;20224;-71
2021/12/06 00:28:57;;;;;;;34.87;20.43;;;;;;;;;;5027881;28;20236;-71
2021/12/06 00:31:32;;;;;;;32.53;19.97;;;;;;;;;;5019943;28;20727;-72
2021/12/06 00:34:01;;;;;;;36.20;20.23;;;;;;;;;;5000683;28;20243;-71
2021/12/06 00:36:30;;;;;;;35.47;19.77;;;;;;;;;;5012361;28;20670;-72
2021/12/06 00:38:59;;;;;;;39.77;20.73;;;;;;;;;;5011528;28;20869;-72
2021/12/06 00:41:27;;;;;;;33.90;20.40;;;;;;;;;;5010473;28;20390;-72
2021/12/06 00:43:55;;;;;;;35.13;20.17;;;;;;;;;;4988725;28;20311;-71
2021/12/06 00:46:21;;;;;;;34.60;19.57;;;;;;;;;;5009558;28;20366;-71
2021/12/06 00:48:51;;;;;;;36.93;21.50;;;;;;;;;;5010981;28;20244;-72
2021/12/06 00:51:17;;;;;;;35.60;20.40;;;;;;;;;;5000904;28;20706;-72
2021/12/06 00:53:44;;;;;;;32.47;20.13;;;;;;;;;;5012312;28;20653;-71
2021/12/06 00:56:10;;;;;;;30.40;19.17;;;;;;;;;;5001484;28;20224;-71
2021/12/06 00:58:36;;;;;;;29.03;19.70;;;;;;;;;;5002958;28;20260;-73
2021/12/06 01:01:04;;;;;;;33.40;19.30;;;;;;;;;;4977954;28;20213;-71
2021/12/06 01:03:31;;;;;;;27.73;17.67;;;;;;;;;;5002962;28;20289;-71
2021/12/06 01:06:00;;;;;;;25.23;16.97;;;;;;;;;;5010867;28;21523;-72
2021/12/06 01:08:28;;;;;;;26.63;16.70;;;;;;;;;;4986773;28;20706;-72
2021/12/06 01:11:01;;;;;;;23.83;16.00;;;;;;;;;;4994305;28;20591;-72
2021/12/06 01:13:29;;;;;;;23.73;15.50;;;;;;;;;;5012448;28;20226;-72
2021/12/06 01:15:57;;;;;;;26.07;17.27;;;;;;;;;;4978874;28;20224;-72
2021/12/06 01:18:26;;;;;;;21.73;15.37;;;;;;;;;;4998493;28;20220;-72
2021/12/06 01:40:05;;;;;;;20.50;14.33;;;;;;;;;;5003465;28;21158;-73
2021/12/06 01:42:34;;;;;;;20.97;14.83;;;;;;;;;;5009079;28;20232;-72
2021/12/06 01:45:03;;;;;;;21.87;15.27;;;;;;;;;;4998072;28;20243;-73
2021/12/06 01:47:35;;;;;;;19.33;14.13;;;;;;;;;;4998678;28;20232;-73
2021/12/06 01:50:13;;;;;;;22.70;15.67;;;;;;;;;;5008788;28;20282;-72
2021/12/06 01:52:48;;;;;;;22.03;15.80;;;;;;;;;;5001198;28;20678;-72
2021/12/06 01:55:16;;;;;;;21.03;14.53;;;;;;;;;;4992940;28;20233;-73
2021/12/06 01:57:42;;;;;;;20.90;15.00;;;;;;;;;;5013136;28;20225;-73
2021/12/06 02:00:16;;;;;;;21.53;15.97;;;;;;;;;;4996358;28;20250;-72
2021/12/06 02:02:42;;;;;;;22.53;16.10;;;;;;;;;;5013225;28;20274;-72
2021/12/06 02:05:16;;;;;;;24.53;17.17;;;;;;;;;;5028578;28;20233;-72
2021/12/06 02:07:42;;;;;;;22.33;16.27;;;;;;;;;;4997184;28;20224;-73
2021/12/06 02:10:13;;;;;;;22.73;17.27;;;;;;;;;;5001068;28;20281;-72
2021/12/06 02:12:43;;;;;;;22.30;16.50;;;;;;;;;;5012115;28;20270;-70
2021/12/06 02:18:05;;;;;;;26.60;18.43;;;;;;;;;;4997343;28;20214;-71
2021/12/06 02:20:36;;;;;;;22.53;17.23;;;;;;;;;;4993641;28;20224;-72
2021/12/06 02:23:06;;;;;;;23.40;16.47;;;;;;;;;;5017055;28;20669;-71
2021/12/06 02:25:32;;;;;;;21.50;15.80;;;;;;;;;;5022376;28;20724;-70
2021/12/06 02:28:00;;;;;;;22.90;16.70;;;;;;;;;;5007460;28;20228;-73
2021/12/06 02:30:29;;;;;;;24.17;17.13;;;;;;;;;;5018591;28;20263;-70
2021/12/06 02:33:14;;;;;;;25.47;17.67;;;;;;;;;;4992754;28;20307;-72
2021/12/06 02:35:40;;;;;;;24.70;17.07;;;;;;;;;;4984110;28;20227;-72
2021/12/06 02:38:07;;;;;;;23.97;17.07;;;;;;;;;;4995029;28;20917;-73
2021/12/06 02:40:39;;;;;;;22.67;17.67;;;;;;;;;;4997279;28;20225;-72
2021/12/06 02:43:09;;;;;;;25.27;17.73;;;;;;;;;;4980436;28;20715;-72
2021/12/06 02:45:37;;;;;;;25.77;18.13;;;;;;;;;;5012535;28;20220;-72
2021/12/06 02:48:07;;;;;;;24.93;17.90;;;;;;;;;;5011390;28;20228;-73
2021/12/06 02:50:49;;;;;;;22.37;17.07;;;;;;;;;;4995386;28;20236;-72
2021/12/06 02:53:18;;;;;;;27.43;17.90;;;;;;;;;;4995563;28;20227;-72
2021/12/06 02:55:51;;;;;;;25.60;17.97;;;;;;;;;;4993378;28;20225;-72
2021/12/06 02:58:43;;;;;;;26.13;18.60;;;;;;;;;;4979703;28;20222;-72
2021/12/06 03:01:30;;;;;;;25.43;18.10;;;;;;;;;;4992081;28;20224;-72
2021/12/06 03:03:56;;;;;;;26.70;19.10;;;;;;;;;;5003795;28;20231;-72
2021/12/06 03:06:25;;;;;;;27.07;19.07;;;;;;;;;;4995049;28;20221;-72
2021/12/06 03:08:57;;;;;;;28.10;19.37;;;;;;;;;;4985803;28;20243;-72
2021/12/06 03:11:29;;;;;;;26.80;18.87;;;;;;;;;;5010705;28;20236;-72
2021/12/06 03:13:59;;;;;;;28.33;19.33;;;;;;;;;;4977862;28;20217;-73
2021/12/06 03:16:27;;;;;;;32.27;19.60;;;;;;;;;;4994279;28;20224;-72
2021/12/06 03:18:54;;;;;;;30.00;19.37;;;;;;;;;;5011441;28;20216;-72
2021/12/06 03:21:23;;;;;;;30.17;20.57;;;;;;;;;;4994713;28;20216;-72
2021/12/06 03:23:52;;;;;;;28.97;19.63;;;;;;;;;;5011467;28;20224;-72
2021/12/06 03:26:20;;;;;;;31.00;20.67;;;;;;;;;;4977799;28;20217;-72
2021/12/06 03:28:46;;;;;;;33.20;20.80;;;;;;;;;;5011389;28;20228;-73
2021/12/06 03:31:17;;;;;;;33.63;20.43;;;;;;;;;;5010679;28;20657;-72
2021/12/06 03:33:47;;;;;;;31.10;20.17;;;;;;;;;;4996339;28;20225;-72
2021/12/06 03:36:14;;;;;;;31.17;20.70;;;;;;;;;;5010901;28;20227;-73
2021/12/06 03:38:43;;;;;;;34.20;20.60;;;;;;;;;;4995131;28;20623;-73
2021/12/06 03:41:09;;;;;;;30.57;20.00;;;;;;;;;;4996679;28;20314;-72
2021/12/06 03:43:37;;;;;;;32.73;21.73;;;;;;;;;;5027803;28;20225;-72
2021/12/06 03:46:05;;;;;;;32.70;21.50;;;;;;;;;;4998904;28;20262;-72
2021/12/06 03:48:31;;;;;;;31.60;20.87;;;;;;;;;;5016259;28;20224;-70
2021/12/06 03:51:00;;;;;;;34.30;22.07;;;;;;;;;;4999936;28;20229;-71
2021/12/06 03:53:29;;;;;;;32.70;21.87;;;;;;;;;;4994225;28;20216;-70
2021/12/06 03:55:55;;;;;;;33.03;22.47;;;;;;;;;;4983010;28;20223;-73
2021/12/06 03:58:28;;;;;;;38.20;23.27;;;;;;;;;;5010404;28;20212;-73
2021/12/06 04:00:58;;;;;;;35.97;23.67;;;;;;;;;;4994634;28;20504;-71
2021/12/06 04:03:25;;;;;;;35.30;23.60;;;;;;;;;;4998060;28;20945;-70
2021/12/06 04:05:55;;;;;;;36.73;22.83;;;;;;;;;;4995250;28;20220;-72
2021/12/06 04:08:21;;;;;;;37.10;24.70;;;;;;;;;;4983815;28;20232;-71
2021/12/06 04:10:51;;;;;;;35.93;24.00;;;;;;;;;;5001123;28;20221;-71
2021/12/06 04:13:22;;;;;;;35.53;23.13;;;;;;;;;;5002804;28;20251;-71
2021/12/06 04:15:49;;;;;;;40.13;24.57;;;;;;;;;;5026225;28;20227;-71
2021/12/06 04:18:16;;;;;;;38.73;24.13;;;;;;;;;;4983357;28;20726;-72
2021/12/06 04:20:44;;;;;;;37.83;23.30;;;;;;;;;;4969541;28;20224;-71
2021/12/06 04:23:17;;;;;;;37.03;25.23;;;;;;;;;;4997729;28;20234;-72
2021/12/06 04:25:47;;;;;;;38.27;23.47;;;;;;;;;;5010976;28;20220;-71
2021/12/06 04:28:15;;;;;;;35.00;24.07;;;;;;;;;;5026409;28;20213;-72
2021/12/06 04:30:42;;;;;;;37.93;23.63;;;;;;;;;;5010057;28;20231;-71
2021/12/06 04:33:10;;;;;;;43.40;28.20;;;;;;;;;;5000484;28;20776;-71
2021/12/06 04:35:38;;;;;;;39.27;24.00;;;;;;;;;;4994421;28;20228;-71
2021/12/06 04:38:06;;;;;;;35.97;23.73;;;;;;;;;;5009589;28;20224;-72
2021/12/06 04:40:32;;;;;;;35.80;22.97;;;;;;;;;;5026576;28;21639;-72
2021/12/06 04:43:03;;;;;;;40.13;24.50;;;;;;;;;;5010112;28;21633;-71
2021/12/06 04:45:32;;;;;;;38.97;26.63;;;;;;;;;;4982864;28;21022;-71
2021/12/06 04:48:00;;;;;;;37.30;23.23;;;;;;;;;;4998162;28;20227;-71
2021/12/06 04:50:31;;;;;;;37.47;22.67;;;;;;;;;;4991019;28;20228;-72
2021/12/06 04:53:01;;;;;;;40.30;24.37;;;;;;;;;;4999528;28;20225;-72
2021/12/06 04:55:38;;;;;;;39.30;25.23;;;;;;;;;;4978306;28;20731;-72
2021/12/06 04:58:08;;;;;;;39.50;28.03;;;;;;;;;;5008388;28;20298;-71
2021/12/06 05:00:36;;;;;;;39.40;24.03;;;;;;;;;;4993368;28;20229;-71
2021/12/06 05:03:03;;;;;;;39.40;24.67;;;;;;;;;;4993414;28;20216;-72
2021/12/06 05:05:41;;;;;;;37.33;24.63;;;;;;;;;;5008535;28;20306;-73
2021/12/06 05:08:15;;;;;;;44.53;24.47;;;;;;;;;;4992560;28;21714;-73
2021/12/06 05:10:41;;;;;;;40.47;24.27;;;;;;;;;;4993105;28;20316;-73
2021/12/06 05:13:16;;;;;;;39.47;24.80;;;;;;;;;;5009255;28;20263;-74
2021/12/06 05:15:45;;;;;;;39.70;24.63;;;;;;;;;;4998034;28;20594;-74
2021/12/06 05:18:14;;;;;;;38.43;24.93;;;;;;;;;;4976993;28;20295;-74
2021/12/06 05:20:44;;;;;;;39.53;24.40;;;;;;;;;;4992394;28;20315;-74
2021/12/06 05:23:15;;;;;;;41.13;23.67;;;;;;;;;;4976786;28;20328;-74
2021/12/06 05:25:46;;;;;;;39.40;24.57;;;;;;;;;;4982661;28;20355;-74
2021/12/06 05:28:12;;;;;;;40.00;24.30;;;;;;;;;;4993206;28;20236;-73
2021/12/06 05:30:43;;;;;;;37.43;23.33;;;;;;;;;;4993929;28;20217;-74
2021/12/06 05:33:17;;;;;;;36.23;23.27;;;;;;;;;;5014237;28;20698;-74
2021/12/06 05:35:44;;;;;;;38.40;23.73;;;;;;;;;;5000741;28;20231;-74
2021/12/06 05:38:10;;;;;;;33.73;22.37;;;;;;;;;;5007453;28;20223;-74
2021/12/06 05:40:38;;;;;;;35.07;20.37;;;;;;;;;;5016553;28;20224;-72
2021/12/06 05:43:11;;;;;;;35.07;21.40;;;;;;;;;;5007964;28;20217;-73
2021/12/06 05:45:40;;;;;;;33.20;21.03;;;;;;;;;;4989212;28;20242;-71
2021/12/06 05:48:05;;;;;;;33.37;21.80;;;;;;;;;;5000434;28;20902;-72
2021/12/06 05:50:33;;;;;;;34.00;21.73;;;;;;;;;;5016020;28;20228;-72
2021/12/06 05:53:01;;;;;;;31.03;20.77;;;;;;;;;;4999229;28;20217;-72
2021/12/06 05:55:30;;;;;;;32.53;20.07;;;;;;;;;;5009006;28;20837;-73
2021/12/06 05:57:56;;;;;;;33.80;20.80;;;;;;;;;;5016747;28;20232;-73
2021/12/06 06:00:23;;;;;;;32.50;19.93;;;;;;;;;;5004285;28;20249;-73
2021/12/06 06:02:51;;;;;;;30.57;19.30;;;;;;;;;;5015604;28;20307;-73
2021/12/06 06:05:21;;;;;;;31.57;20.23;;;;;;;;;;5004347;28;20223;-72
2021/12/06 06:07:50;;;;;;;33.73;20.73;;;;;;;;;;4982619;28;20294;-76
2021/12/06 06:10:18;;;;;;;30.77;19.97;;;;;;;;;;5015599;28;20706;-73
2021/12/06 06:12:48;;;;;;;30.97;19.77;;;;;;;;;;5009650;28;20268;-72
2021/12/06 06:15:16;;;;;;;32.30;20.13;;;;;;;;;;5015049;28;20220;-72
2021/12/06 06:17:44;;;;;;;31.20;20.87;;;;;;;;;;5000087;28;20220;-73
2021/12/06 06:20:17;;;;;;;29.23;19.53;;;;;;;;;;5003355;28;20243;-72
2021/12/06 06:22:43;;;;;;;30.70;19.37;;;;;;;;;;5015820;28;20219;-73
2021/12/06 06:25:15;;;;;;;32.07;19.30;;;;;;;;;;5015126;28;20228;-72
2021/12/06 06:27:45;;;;;;;33.17;21.03;;;;;;;;;;5010011;28;20231;-72
2021/12/06 06:30:14;;;;;;;35.57;20.77;;;;;;;;;;4998431;28;20248;-73
2021/12/06 06:32:42;;;;;;;34.10;20.13;;;;;;;;;;5016559;28;20223;-73
2021/12/06 06:35:23;;;;;;;34.27;20.87;;;;;;;;;;5004707;28;20231;-74
2021/12/06 06:37:48;;;;;;;34.73;20.43;;;;;;;;;;5017033;28;20630;-73
2021/12/06 06:40:14;;;;;;;36.07;21.40;;;;;;;;;;5016477;28;20227;-74
2021/12/06 06:42:40;;;;;;;36.80;22.77;;;;;;;;;;5016515;28;20224;-74
2021/12/06 06:45:06;;;;;;;36.63;22.03;;;;;;;;;;5011822;28;20477;-74
2021/12/06 06:47:34;;;;;;;39.40;23.80;;;;;;;;;;4980425;28;20773;-74
2021/12/06 06:50:02;;;;;;;39.50;23.97;;;;;;;;;;5000247;28;20224;-74
2021/12/06 06:52:30;;;;;;;39.37;22.47;;;;;;;;;;5000246;28;20252;-73
2021/12/06 06:54:59;;;;;;;39.93;22.60;;;;;;;;;;4987339;28;20229;-73
2021/12/06 06:57:25;;;;;;;38.20;22.20;;;;;;;;;;5000962;28;20300;-72
2021/12/06 06:59:50;;;;;;;36.87;22.50;;;;;;;;;;4995553;28;20228;-74
2021/12/06 07:02:18;;;;;;;41.17;24.10;;;;;;;;;;5000597;28;20229;-73
2021/12/06 07:04:45;;;;;;;35.23;22.43;;;;;;;;;;5011954;28;20232;-73
2021/12/06 07:07:13;;;;;;;39.93;23.10;;;;;;;;;;4995286;28;20220;-73
2021/12/06 07:09:43;;;;;;;35.13;22.40;;;;;;;;;;5011894;28;20243;-73
2021/12/06 07:12:15;;;;;;;38.23;21.93;;;;;;;;;;5003248;28;20263;-73
2021/12/06 07:14:46;;;;;;;38.27;22.93;;;;;;;;;;4996722;28;20311;-73
2021/12/06 07:17:12;;;;;;;35.97;23.33;;;;;;;;;;4988878;28;20357;-74
2021/12/06 07:19:39;;;;;;;37.80;23.20;;;;;;;;;;4994716;28;20228;-73
2021/12/06 07:22:10;;;;;;;39.70;22.73;;;;;;;;;;5010107;28;20314;-73
2021/12/06 07:24:39;;;;;;;34.67;22.60;;;;;;;;;;5010874;28;20225;-73
2021/12/06 07:27:04;;;;;;;36.50;21.83;;;;;;;;;;4994787;28;20220;-73
2021/12/06 07:29:33;;;;;;;34.40;21.60;;;;;;;;;;4979465;28;20311;-73
2021/12/06 07:32:03;;;;;;;35.30;21.97;;;;;;;;;;5000241;28;20240;-74
2021/12/06 07:34:28;;;;;;;35.47;21.53;;;;;;;;;;4994581;28;20311;-72
2021/12/06 07:36:56;;;;;;;34.57;21.57;;;;;;;;;;5011016;28;20231;-75
2021/12/06 07:39:24;;;;;;;33.13;20.70;;;;;;;;;;4988013;28;21549;-72
2021/12/06 07:41:55;;;;;;;34.07;21.43;;;;;;;;;;4994716;28;20310;-73
2021/12/06 07:44:22;;;;;;;32.83;20.90;;;;;;;;;;4994375;28;20220;-74
2021/12/06 07:46:50;;;;;;;33.80;21.57;;;;;;;;;;4994701;28;20235;-72
2021/12/06 07:49:15;;;;;;;30.33;20.20;;;;;;;;;;4994473;28;20266;-72
2021/12/06 07:51:45;;;;;;;31.23;19.70;;;;;;;;;;5003154;28;20215;-73
2021/12/06 07:54:13;;;;;;;32.40;20.47;;;;;;;;;;5003783;28;20224;-73
2021/12/06 07:56:41;;;;;;;32.83;20.93;;;;;;;;;;4984016;28;20597;-73
2021/12/06 07:59:13;;;;;;;32.13;19.83;;;;;;;;;;5000452;28;20783;-73
2021/12/06 08:01:41;;;;;;;28.60;20.10;;;;;;;;;;5011455;28;20224;-73
2021/12/06 08:04:08;;;;;;;28.17;18.73;;;;;;;;;;4995316;28;20221;-73
2021/12/06 08:06:39;;;;;;;24.47;18.27;;;;;;;;;;5010576;28;20240;-74
2021/12/06 08:09:05;;;;;;;28.20;18.73;;;;;;;;;;5009946;28;20791;-73
2021/12/06 08:11:33;;;;;;;24.63;16.60;;;;;;;;;;4993477;28;20232;-74
2021/12/06 08:13:58;;;;;;;28.67;18.33;;;;;;;;;;4994138;28;20227;-74
2021/12/06 08:16:31;;;;;;;24.57;16.70;;;;;;;;;;5010591;28;20221;-72
2021/12/06 08:18:59;;;;;;;26.40;16.00;;;;;;;;;;4994545;28;20225;-72
2021/12/06 08:21:27;;;;;;;27.23;17.57;;;;;;;;;;4986542;28;21680;-73
2021/12/06 08:23:58;;;;;;;26.10;16.37;;;;;;;;;;5010695;28;20286;-73
2021/12/06 08:26:25;;;;;;;23.73;16.53;;;;;;;;;;5009383;28;20312;-73
2021/12/06 08:28:53;;;;;;;24.67;15.93;;;;;;;;;;4993684;28;20228;-74
2021/12/06 08:31:18;;;;;;;24.70;16.03;;;;;;;;;;5008478;28;20290;-73
2021/12/06 08:33:45;;;;;;;23.93;16.43;;;;;;;;;;4987680;28;20220;-73
2021/12/06 08:36:12;;;;;;;24.93;16.93;;;;;;;;;;5008983;28;20224;-72
2021/12/06 08:38:41;;;;;;;22.83;16.43;;;;;;;;;;5009632;28;20236;-73
2021/12/06 08:41:11;;;;;;;23.67;16.60;;;;;;;;;;4983664;28;20319;-73
2021/12/06 08:43:37;;;;;;;24.47;16.50;;;;;;;;;;4977665;28;20225;-73
2021/12/06 08:46:06;;;;;;;21.97;16.40;;;;;;;;;;5009555;28;20220;-73
2021/12/06 08:48:36;;;;;;;27.37;17.10;;;;;;;;;;5011103;28;20228;-75
2021/12/06 08:51:10;;;;;;;26.23;16.53;;;;;;;;;;4999506;28;20224;-74
2021/12/06 08:53:37;;;;;;;25.53;17.37;;;;;;;;;;4994432;28;20239;-75
2021/12/06 08:56:07;;;;;;;23.10;17.00;;;;;;;;;;5009281;28;21008;-73
2021/12/06 08:58:36;;;;;;;23.07;16.10;;;;;;;;;;4994123;28;20710;-73
2021/12/06 09:01:04;;;;;;;24.20;16.90;;;;;;;;;;4993265;28;20235;-73
2021/12/06 09:03:30;;;;;;;21.63;15.40;;;;;;;;;;4991899;28;20295;-73
2021/12/06 09:06:01;;;;;;;20.90;14.43;;;;;;;;;;4984503;28;20216;-72
2021/12/06 09:08:31;;;;;;;24.70;15.03;;;;;;;;;;5009130;28;20232;-74
2021/12/06 09:11:00;;;;;;;18.57;13.70;;;;;;;;;;5024668;28;20229;-73
2021/12/06 09:13:28;;;;;;;20.10;14.40;;;;;;;;;;5009178;28;20226;-73
2021/12/06 09:15:59;;;;;;;20.27;14.17;;;;;;;;;;4999613;28;20713;-74
2021/12/06 09:18:33;;;;;;;21.60;15.00;;;;;;;;;;4993766;28;20311;-74
2021/12/06 09:21:05;;;;;;;23.73;14.53;;;;;;;;;;5009748;28;20327;-74
2021/12/06 09:23:37;;;;;;;21.60;14.53;;;;;;;;;;5009118;28;21022;-74
2021/12/06 09:26:03;;;;;;;21.97;15.03;;;;;;;;;;4992009;28;20235;-74
2021/12/06 09:28:36;;;;;;;23.90;15.90;;;;;;;;;;4991851;28;20234;-73
2021/12/06 09:31:04;;;;;;;23.60;14.43;;;;;;;;;;4993404;28;20220;-74
2021/12/06 09:33:30;;;;;;;24.03;15.30;;;;;;;;;;4992927;28;20609;-74
2021/12/06 09:35:59;;;;;;;20.47;13.97;;;;;;;;;;5009031;28;20233;-73
2021/12/06 09:38:35;;;;;;;21.77;15.20;;;;;;;;;;5008598;28;20761;-73
2021/12/06 09:41:05;;;;;;;21.57;14.93;;;;;;;;;;5008908;28;21249;-73
2021/12/06 09:43:38;;;;;;;23.43;15.57;;;;;;;;;;5009163;28;20318;-73
2021/12/06 09:46:09;;;;;;;19.83;14.13;;;;;;;;;;4978139;28;20217;-74
2021/12/06 09:48:35;;;;;;;22.13;15.67;;;;;;;;;;5018948;28;20235;-73
2021/12/06 09:51:04;;;;;;;22.80;14.70;;;;;;;;;;5009472;28;20224;-74
2021/12/06 09:53:30;;;;;;;25.67;15.60;;;;;;;;;;5008416;28;20231;-73
2021/12/06 09:56:01;;;;;;;22.43;14.97;;;;;;;;;;5008358;28;20273;-72
2021/12/06 09:58:30;;;;;;;24.90;15.93;;;;;;;;;;4990869;28;20231;-75
2021/12/06 10:01:03;;;;;;;20.00;14.10;;;;;;;;;;5002762;28;20228;-72
2021/12/06 10:03:33;;;;;;;18.40;14.17;;;;;;;;;;4993197;28;20228;-74
2021/12/06 10:06:02;;;;;;;21.07;14.57;;;;;;;;;;5008842;28;20303;-74
2021/12/06 10:08:35;;;;;;;21.83;14.77;;;;;;;;;;4992765;28;20259;-74
2021/12/06 10:11:02;;;;;;;19.80;14.43;;;;;;;;;;4960766;28;20224;-74
2021/12/06 10:13:30;;;;;;;16.47;12.13;;;;;;;;;;4985842;28;20228;-73
2021/12/06 10:16:00;;;;;;;16.77;12.10;;;;;;;;;;5025088;28;20225;-73
2021/12/06 10:18:29;;;;;;;19.10;13.53;;;;;;;;;;5009725;28;20217;-73
2021/12/06 10:20:57;;;;;;;17.53;12.33;;;;;;;;;;4980112;28;20739;-73
2021/12/06 10:23:25;;;;;;;17.33;12.93;;;;;;;;;;5013226;28;20219;-74
2021/12/06 10:25:51;;;;;;;19.20;13.07;;;;;;;;;;5012150;28;20224;-73
2021/12/06 10:28:23;;;;;;;17.07;11.97;;;;;;;;;;5013113;28;20229;-74
2021/12/06 10:30:51;;;;;;;16.50;12.33;;;;;;;;;;5012347;28;20238;-73
2021/12/06 10:33:19;;;;;;;19.23;13.60;;;;;;;;;;4995882;28;20351;-73
2021/12/06 10:35:47;;;;;;;18.53;13.47;;;;;;;;;;5002415;28;20247;-74
2021/12/06 10:38:21;;;;;;;19.30;13.03;;;;;;;;;;4984120;28;21251;-74
2021/12/06 10:40:49;;;;;;;16.83;12.07;;;;;;;;;;4997286;28;20240;-74
2021/12/06 10:43:17;;;;;;;17.57;12.93;;;;;;;;;;4995489;28;20654;-73
2021/12/06 10:45:47;;;;;;;16.53;12.90;;;;;;;;;;5011781;28;20228;-73
2021/12/06 10:48:21;;;;;;;16.67;11.80;;;;;;;;;;5011495;28;20260;-73
2021/12/06 10:50:52;;;;;;;13.90;10.70;;;;;;;;;;5011647;28;20277;-73
2021/12/06 10:53:37;;;;;;;15.80;11.43;;;;;;;;;;4995262;28;20288;-72
2021/12/06 10:56:03;;;;;;;18.23;11.57;;;;;;;;;;5011329;28;20275;-74
2021/12/06 10:58:31;;;;;;;18.40;12.53;;;;;;;;;;4979476;28;20591;-73
2021/12/06 11:01:12;;;;;;;16.07;12.17;;;;;;;;;;5005370;28;20251;-72
2021/12/06 11:03:51;;;;;;;15.77;11.97;;;;;;;;;;4997059;28;21581;-72
2021/12/06 11:06:42;;;;;;;18.73;11.97;;;;;;;;;;4996004;28;20228;-72
2021/12/06 11:09:08;;;;;;;17.37;12.53;;;;;;;;;;5011861;28;20327;-73
2021/12/06 11:11:37;;;;;;;19.50;13.03;;;;;;;;;;5017185;28;20316;-72
2021/12/06 11:14:13;;;;;;;17.57;13.13;;;;;;;;;;5016105;28;20250;-72
2021/12/06 11:16:44;;;;;;;17.53;12.63;;;;;;;;;;5015748;28;20216;-72
2021/12/06 11:19:13;;;;;;;17.70;12.53;;;;;;;;;;4975212;28;20216;-74
2021/12/06 11:21:43;;;;;;;19.73;13.70;;;;;;;;;;5013144;28;20287;-74
2021/12/06 11:24:11;;;;;;;18.57;12.53;;;;;;;;;;4995313;28;20220;-74
2021/12/06 11:26:58;;;;;;;19.33;13.50;;;;;;;;;;5010867;28;20232;-74
2021/12/06 11:29:35;;;;;;;18.23;13.03;;;;;;;;;;4997203;28;20229;-74
2021/12/06 11:32:11;;;;;;;18.60;12.73;;;;;;;;;;5005564;28;20247;-75
2021/12/06 11:34:43;;;;;;;15.77;11.53;;;;;;;;;;4979468;28;20224;-74
2021/12/06 11:37:17;;;;;;;16.57;13.30;;;;;;;;;;4995702;28;20702;-73
2021/12/06 11:39:47;;;;;;;18.23;13.07;;;;;;;;;;4995486;28;20223;-74
2021/12/06 11:42:17;;;;;;;17.60;12.53;;;;;;;;;;5000828;28;20259;-73
2021/12/06 11:44:43;;;;;;;15.97;12.77;;;;;;;;;;5001213;28;20290;-73
2021/12/06 11:47:13;;;;;;;19.50;13.83;;;;;;;;;;4983433;28;20253;-73
2021/12/06 11:49:53;;;;;;;18.57;14.27;;;;;;;;;;5010459;28;20233;-73
2021/12/06 11:52:22;;;;;;;16.33;12.47;;;;;;;;;;4996253;28;20234;-72
2021/12/06 11:54:52;;;;;;;17.17;11.83;;;;;;;;;;5010937;28;20229;-73
2021/12/06 11:57:46;;;;;;;14.57;11.67;;;;;;;;;;4994710;28;20223;-73
2021/12/06 12:00:21;;;;;;;15.30;10.80;;;;;;;;;;5010949;28;20235;-74
2021/12/06 12:02:50;;;;;;;14.37;10.77;;;;;;;;;;5011455;28;20859;-74
2021/12/06 12:05:37;;;;;;;14.63;10.90;;;;;;;;;;5010365;28;20706;-73
2021/12/06 12:08:09;;;;;;;15.10;11.13;;;;;;;;;;4995440;28;20235;-73
2021/12/06 12:10:54;;;;;;;14.97;11.13;;;;;;;;;;4994457;28;20966;-73
2021/12/06 12:13:36;;;;;;;15.80;10.53;;;;;;;;;;4983080;28;20228;-73
2021/12/06 12:16:05;;;;;;;15.37;10.37;;;;;;;;;;4994833;28;20339;-73
2021/12/06 12:18:34;;;;;;;15.30;11.17;;;;;;;;;;5011083;28;20251;-72
2021/12/06 12:21:02;;;;;;;15.00;11.07;;;;;;;;;;4964154;28;20228;-72
2021/12/06 12:23:34;;;;;;;14.50;10.80;;;;;;;;;;5011354;28;20307;-72
2021/12/06 12:26:04;;;;;;;14.90;10.97;;;;;;;;;;5027212;28;20278;-74
2021/12/06 12:28:41;;;;;;;14.50;10.93;;;;;;;;;;5012253;28;20240;-73
2021/12/06 12:31:09;;;;;;;19.20;11.83;;;;;;;;;;5010415;28;20228;-74
2021/12/06 12:33:35;;;;;;;13.17;10.80;;;;;;;;;;5010712;28;20216;-72
2021/12/06 12:36:10;;;;;;;15.00;11.50;;;;;;;;;;5010992;28;20941;-73
2021/12/06 12:38:38;;;;;;;14.67;10.93;;;;;;;;;;4980222;28;20720;-72
2021/12/06 12:41:11;;;;;;;13.40;11.13;;;;;;;;;;4985326;28;20255;-74
2021/12/06 12:43:46;;;;;;;14.47;11.70;;;;;;;;;;5011020;28;20232;-73
2021/12/06 12:46:19;;;;;;;17.40;11.87;;;;;;;;;;5010641;28;20597;-72
2021/12/06 12:48:48;;;;;;;16.77;11.53;;;;;;;;;;5010310;28;20225;-74
2021/12/06 12:51:16;;;;;;;15.87;11.80;;;;;;;;;;4999814;28;20275;-74
2021/12/06 12:53:44;;;;;;;12.07;10.70;;;;;;;;;;5011736;28;20232;-74
2021/12/06 12:56:37;;;;;;;13.13;10.50;;;;;;;;;;4997339;28;20235;-75
2021/12/06 12:59:42;;;;;;;29.57;19.20;;;;;;;;;;5002506;28;20295;-77
2021/12/06 13:02:24;;;;;;;15.87;11.20;;;;;;;;;;5008735;28;20752;-74
2021/12/06 13:04:58;;;;;;;14.70;11.17;;;;;;;;;;5009252;28;21170;-73
2021/12/06 13:07:33;;;;;;;13.73;10.50;;;;;;;;;;5009967;28;20665;-74
2021/12/06 13:10:30;;;;;;;14.33;11.03;;;;;;;;;;4982965;28;20311;-74
2021/12/06 13:13:23;;;;;;;13.27;10.53;;;;;;;;;;4992166;28;20241;-73
2021/12/06 13:18:48;;;;;;;11.93;10.57;;;;;;;;;;5009929;28;20243;-73
2021/12/06 13:21:52;;;;;;;14.67;11.10;;;;;;;;;;5009631;28;20240;-73
2021/12/06 13:24:22;;;;;;;18.90;10.83;;;;;;;;;;4990081;28;20336;-73
2021/12/06 13:26:53;;;;;;;17.70;11.77;;;;;;;;;;5010583;28;20236;-75
2021/12/06 13:29:25;;;;;;;15.53;11.47;;;;;;;;;;4985434;28;20276;-73
2021/12/06 13:31:51;;;;;;;15.47;12.13;;;;;;;;;;5011791;28;20266;-74
2021/12/06 13:34:20;;;;;;;16.17;11.63;;;;;;;;;;5009451;28;20749;-73
2021/12/06 13:36:50;;;;;;;15.10;11.57;;;;;;;;;;5009706;28;20275;-73
2021/12/06 13:39:32;;;;;;;16.37;12.00;;;;;;;;;;5008634;28;20233;-73
2021/12/06 13:42:14;;;;;;;14.67;10.73;;;;;;;;;;4991956;28;20220;-73
2021/12/06 13:44:51;;;;;;;15.47;12.00;;;;;;;;;;4979160;28;20220;-74
2021/12/06 13:47:22;;;;;;;15.87;12.47;;;;;;;;;;5008600;28;20252;-73
2021/12/06 13:49:51;;;;;;;17.20;12.37;;;;;;;;;;5009023;28;20236;-73
2021/12/06 13:52:51;;;;;;;16.67;12.07;;;;;;;;;;5010057;28;20229;-74
2021/12/06 13:55:25;;;;;;;16.87;11.80;;;;;;;;;;5006293;28;20224;-72
2021/12/06 13:58:00;;;;;;;16.87;12.13;;;;;;;;;;5025706;28;20223;-73
2021/12/06 14:00:28;;;;;;;16.60;12.67;;;;;;;;;;5013305;28;20251;-72
2021/12/06 14:02:55;;;;;;;17.07;12.63;;;;;;;;;;5014046;28;20220;-72
2021/12/06 14:05:21;;;;;;;18.40;13.27;;;;;;;;;;5028923;28;20677;-74
2021/12/06 14:07:47;;;;;;;18.43;12.87;;;;;;;;;;4980075;28;20213;-73
2021/12/06 14:10:16;;;;;;;15.63;12.03;;;;;;;;;;4996009;28;20232;-73
2021/12/06 14:12:42;;;;;;;19.27;13.17;;;;;;;;;;5004089;28;20748;-73
2021/12/06 14:15:41;;;;;;;15.70;12.07;;;;;;;;;;5012397;28;20311;-73
2021/12/06 14:18:04;;;;;;;15.73;12.20;;;;;;;;;;5011796;28;20224;-74
2021/12/06 14:20:34;;;;;;;16.30;12.77;;;;;;;;;;4996248;28;20228;-74
2021/12/06 14:23:03;;;;;;;19.10;13.33;;;;;;;;;;5011940;28;20256;-74
2021/12/06 14:25:28;;;;;;;17.60;13.30;;;;;;;;;;4996845;28;20659;-74
2021/12/06 14:27:59;;;;;;;17.00;12.90;;;;;;;;;;4996248;28;20239;-74
2021/12/06 14:30:24;;;;;;;19.90;14.87;;;;;;;;;;4979792;28;20615;-76
2021/12/06 14:32:55;;;;;;;17.83;13.53;;;;;;;;;;4985786;28;20213;-73
2021/12/06 14:35:23;;;;;;;16.67;12.90;;;;;;;;;;5011277;28;20734;-73
2021/12/06 14:37:49;;;;;;;18.67;13.30;;;;;;;;;;5012012;28;20244;-74
2021/12/06 14:40:15;;;;;;;18.10;13.13;;;;;;;;;;4979521;28;20979;-75
2021/12/06 14:42:41;;;;;;;18.73;13.17;;;;;;;;;;4987771;28;20267;-74
2021/12/06 14:45:10;;;;;;;17.73;13.27;;;;;;;;;;5009638;28;20216;-76
2021/12/06 14:47:48;;;;;;;18.43;13.80;;;;;;;;;;5012192;28;20213;-73
2021/12/06 14:50:20;;;;;;;17.67;13.03;;;;;;;;;;5012159;28;20286;-73
2021/12/06 14:52:48;;;;;;;17.73;13.77;;;;;;;;;;5012194;28;20306;-72
2021/12/06 14:58:12;;;;;;;18.03;14.20;;;;;;;;;;5012184;28;20493;-72
2021/12/06 15:00:42;;;;;;;19.73;13.67;;;;;;;;;;5012437;28;20264;-72
2021/12/06 15:03:13;;;;;;;20.23;13.53;;;;;;;;;;4996124;28;20927;-73